Time;durP1;ratioP1;P1;durP2;ratioP2;P2;SDS_P1;SDS_P2;PMS_P1;PMS_P2;Temp;Humidity;BMP_temperature;BMP_pressure;BME280_temperature;BME280_humidity;BME280_pressure;Samples;Min_cycle;Max_cycle;Signal;HPM_P1;HPM_P2
2021/11/07 00:03:54;;;;;;;31.27;20.10;;;;;;;8.22;100.00;100714.41;5067969;28;20483;-76
2021/11/07 00:08:58;;;;;;;30.63;20.85;;;;;;;8.12;100.00;100722.41;5068181;28;20109;-75
2021/11/07 00:11:26;;;;;;;29.42;19.83;;;;;;;8.11;100.00;100718.09;5067096;28;20043;-75
2021/11/07 00:13:52;;;;;;;36.45;22.70;;;;;;;8.14;100.00;100735.59;5067740;28;20086;-75
2021/11/07 00:16:38;;;;;;;34.55;20.80;;;;;;;7.98;100.00;100721.09;5067025;28;20043;-75
2021/11/07 00:19:12;;;;;;;36.28;20.00;;;;;;;8.05;100.00;100742.59;5067013;28;20386;-74
2021/11/07 00:24:23;;;;;;;31.35;18.42;;;;;;;8.04;100.00;100762.22;5066767;28;20036;-75
2021/11/07 00:27:19;;;;;;;33.25;20.15;;;;;;;8.00;100.00;100753.69;5067168;28;20136;-75
2021/11/07 00:30:01;;;;;;;29.67;20.27;;;;;;;8.04;100.00;100757.72;5066951;28;20036;-75
2021/11/07 00:32:39;;;;;;;33.03;20.92;;;;;;;8.07;100.00;100777.03;5067032;28;20054;-75
2021/11/07 00:37:56;;;;;;;30.90;18.95;;;;;;;8.11;100.00;100767.78;5066972;28;20050;-75
2021/11/07 00:43:15;;;;;;;30.55;18.65;;;;;;;8.13;100.00;100765.84;5069180;28;20044;-75
2021/11/07 00:45:49;;;;;;;31.25;18.02;;;;;;;8.10;100.00;100763.44;5071567;28;20032;-75
2021/11/07 00:48:23;;;;;;;27.60;17.77;;;;;;;8.07;100.00;100755.75;5071770;28;20032;-75
2021/11/07 00:51:11;;;;;;;27.83;17.85;;;;;;;8.10;100.00;100766.09;5071619;28;20552;-75
2021/11/07 00:53:44;;;;;;;25.65;16.60;;;;;;;8.09;100.00;100757.28;5070382;28;20457;-75
2021/11/07 01:01:24;;;;;;;26.15;16.90;;;;;;;8.17;100.00;100773.38;5070480;28;20040;-75
2021/11/07 01:03:50;;;;;;;30.85;17.13;;;;;;;8.18;100.00;100769.72;5070201;28;20346;-75
2021/11/07 01:06:16;;;;;;;28.35;16.50;;;;;;;8.21;100.00;100769.41;5070593;28;20517;-76
2021/11/07 01:08:41;;;;;;;;;;;;;;;8.23;100.00;100758.63;5071822;28;20033;-75
2021/11/07 01:11:07;;;;;;;;;;;;;;;8.21;100.00;100741.97;5070871;28;20306;-76
2021/11/07 01:13:33;;;;;;;21.63;13.87;;;;;;;8.19;100.00;100741.28;5070001;28;20010;-76
2021/11/07 01:15:59;;;;;;;;;;;;;;;8.22;100.00;100743.69;5087782;28;20040;-76
2021/11/07 01:18:24;;;;;;;;;;;;;;;8.23;100.00;100734.69;5071734;28;19962;-76
2021/11/07 01:20:50;;;;;;;18.50;12.02;;;;;;;8.26;100.00;100729.06;5070208;28;19924;-75
2021/11/07 01:23:23;;;;;;;19.00;13.38;;;;;;;8.22;100.00;100714.41;5069960;28;20059;-76
2021/11/07 01:25:59;;;;;;;18.65;11.80;;;;;;;8.35;100.00;100712.22;5070132;28;20032;-75
2021/11/07 01:28:26;;;;;;;21.20;13.40;;;;;;;8.37;100.00;100686.31;5069982;28;20032;-76
2021/11/07 01:30:55;;;;;;;17.58;11.55;;;;;;;8.36;100.00;100655.41;5069827;28;20033;-77
2021/11/07 01:33:24;;;;;;;18.58;12.57;;;;;;;8.38;100.00;100656.09;5070403;28;20037;-77
2021/11/07 01:38:39;;;;;;;19.25;13.55;;;;;;;8.30;100.00;100640.03;5070948;28;20458;-76
2021/11/07 01:41:17;;;;;;;18.30;13.40;;;;;;;8.25;100.00;100635.16;5069873;28;20437;-77
2021/11/07 01:43:44;;;;;;;17.02;12.98;;;;;;;8.39;100.00;100660.41;5070453;28;20048;-77
2021/11/07 01:46:25;;;;;;;17.85;12.52;;;;;;;8.37;100.00;100641.09;5053059;28;20044;-77
2021/11/07 01:51:26;;;;;;;19.05;12.30;;;;;;;8.40;100.00;100640.81;5070594;28;20036;-76
2021/11/07 01:53:54;;;;;;;;;;;;;;;8.44;100.00;100644.84;5070050;28;20032;-76
2021/11/07 01:56:20;;;;;;;18.88;12.35;;;;;;;8.36;100.00;100604.84;5069559;28;19923;-76
2021/11/07 01:58:46;;;;;;;17.70;12.05;;;;;;;8.35;100.00;100583.72;5069617;28;20377;-78
2021/11/07 02:01:20;;;;;;;16.63;12.27;;;;;;;8.43;100.00;100591.81;5069633;28;20055;-77
2021/11/07 02:03:46;;;;;;;17.38;12.15;;;;;;;8.42;100.00;100582.97;5070097;28;20028;-76
2021/11/07 02:06:12;;;;;;;18.92;11.68;;;;;;;8.45;100.00;100590.66;5068063;28;20043;-77
2021/11/07 02:08:37;;;;;;;18.35;12.82;;;;;;;8.40;100.00;100582.28;5067761;28;20324;-78
2021/11/07 02:11:03;;;;;;;15.97;12.00;;;;;;;8.39;100.00;100587.75;5051428;28;20516;-78
2021/11/07 02:13:29;;;;;;;16.98;11.55;;;;;;;8.43;100.00;100613.94;5067879;28;20281;-78
2021/11/07 02:15:55;;;;;;;15.60;11.97;;;;;;;8.52;100.00;100587.38;5051433;28;20115;-78
2021/11/07 02:18:21;;;;;;;15.38;11.00;;;;;;;8.48;100.00;100596.69;5051580;28;20569;-80
2021/11/07 02:20:48;;;;;;;16.23;11.65;;;;;;;8.51;100.00;100583.06;5051239;28;20160;-78
2021/11/07 02:23:16;;;;;;;19.60;13.65;;;;;;;8.47;100.00;100587.84;5068847;28;20024;-77
2021/11/07 02:25:45;;;;;;;14.82;10.70;;;;;;;8.49;100.00;100601.81;5067903;28;20465;-77
2021/11/07 02:28:21;;;;;;;18.73;11.35;;;;;;;8.49;100.00;100601.00;5067694;28;20033;-77
2021/11/07 02:30:47;;;;;;;17.95;11.45;;;;;;;8.36;100.00;100607.50;5067738;28;20078;-78
2021/11/07 02:33:13;;;;;;;17.65;10.68;;;;;;;8.42;100.00;100638.00;5067501;28;20060;-77
2021/11/07 02:35:38;;;;;;;13.23;9.47;;;;;;;8.40;100.00;100639.97;5067156;28;20082;-75
2021/11/07 02:38:03;;;;;;;13.40;9.60;;;;;;;8.39;100.00;100644.44;5068531;28;20271;-75
2021/11/07 02:40:29;;;;;;;13.00;9.50;;;;;;;8.41;100.00;100650.47;5068625;28;20373;-75
2021/11/07 02:42:55;;;;;;;13.63;9.70;;;;;;;8.41;100.00;100661.13;5068305;28;20028;-75
2021/11/07 02:45:21;;;;;;;13.60;10.32;;;;;;;8.40;100.00;100670.06;5067186;28;20036;-75
2021/11/07 02:47:49;;;;;;;14.85;10.43;;;;;;;8.51;100.00;100681.50;5068373;28;20047;-75
2021/11/07 02:50:17;;;;;;;13.90;10.50;;;;;;;8.53;100.00;100674.22;5068526;28;20048;-75
2021/11/07 02:52:44;;;;;;;10.35;8.25;;;;;;;8.54;100.00;100663.41;5068108;28;20066;-75
2021/11/07 02:55:10;;;;;;;9.50;7.47;;;;;;;8.57;100.00;100646.28;5066980;28;20047;-75
2021/11/07 02:57:37;;;;;;;11.20;7.60;;;;;;;8.57;100.00;100635.66;5068198;28;20028;-75
2021/11/07 03:00:04;;;;;;;;;;;;;;;8.62;100.00;100631.56;5068656;28;20105;-75
2021/11/07 03:02:31;;;;;;;10.77;7.05;;;;;;;8.57;100.00;100609.03;5067826;28;19912;-75
2021/11/07 03:04:57;;;;;;;;;;;;;;;8.58;100.00;100589.44;5050430;28;20335;-75
2021/11/07 03:07:22;;;;;;;;;;;;;;;8.58;100.00;100578.78;5066972;28;19930;-75
2021/11/07 03:09:48;;;;;;;11.10;7.60;;;;;;;8.53;100.00;100573.09;5066959;28;19916;-75
2021/11/07 03:12:14;;;;;;;10.32;7.80;;;;;;;8.51;100.00;100586.56;5067802;28;20519;-75
2021/11/07 03:14:52;;;;;;;8.13;6.72;;;;;;;8.52;100.00;100606.88;5066437;28;20024;-75
2021/11/07 03:17:21;;;;;;;12.40;8.43;;;;;;;8.52;100.00;100606.00;5050189;28;20041;-75
2021/11/07 03:19:48;;;;;;;11.13;7.20;;;;;;;8.55;100.00;100630.50;5067674;28;20090;-75
2021/11/07 03:22:16;;;;;;;10.88;7.60;;;;;;;8.60;100.00;100641.53;5067622;28;20033;-75
2021/11/07 03:24:44;;;;;;;12.45;7.38;;;;;;;8.49;100.00;100620.44;5049641;28;20131;-75
2021/11/07 03:27:19;;;;;;;24.92;9.32;;;;;;;8.53;100.00;100628.97;5066361;28;20044;-74
2021/11/07 03:29:49;;;;;;;12.88;7.55;;;;;;;8.54;100.00;100626.16;5067403;28;20234;-74
2021/11/07 03:32:24;;;;;;;10.38;7.10;;;;;;;8.49;100.00;100623.13;5067628;28;20064;-73
2021/11/07 03:34:53;;;;;;;10.15;7.28;;;;;;;8.57;100.00;100639.16;5049488;28;20039;-73
2021/11/07 03:37:23;;;;;;;18.60;7.53;;;;;;;8.48;100.00;100629.44;5049745;28;20441;-74
2021/11/07 03:39:51;;;;;;;12.43;6.72;;;;;;;8.44;100.00;100642.19;5066244;28;20036;-74
2021/11/07 03:42:17;;;;;;;10.50;5.55;;;;;;;8.45;100.00;100635.03;5067251;28;20040;-74
2021/11/07 03:44:43;;;;;;;11.88;6.65;;;;;;;8.41;100.00;100641.69;5049460;28;20435;-74
2021/11/07 03:47:09;;;;;;;12.50;5.25;;;;;;;8.45;100.00;100651.88;5066303;28;20435;-74
2021/11/07 03:49:36;;;;;;;10.77;4.90;;;;;;;8.36;100.00;100634.13;5066310;28;20028;-74
2021/11/07 03:52:03;;;;;;;9.57;4.35;;;;;;;8.34;100.00;100641.41;5049506;28;20036;-74
2021/11/07 03:54:30;;;;;;;8.10;4.53;;;;;;;8.31;100.00;100647.03;5066759;28;20044;-74
2021/11/07 03:56:58;;;;;;;5.18;3.25;;;;;;;8.37;100.00;100665.03;5066374;28;20107;-75
2021/11/07 03:59:24;;;;;;;8.43;3.65;;;;;;;8.37;100.00;100662.38;5066213;28;20119;-74
2021/11/07 04:01:50;;;;;;;8.10;3.47;;;;;;;8.36;100.00;100655.41;5066288;28;20029;-75
2021/11/07 04:04:16;;;;;;;11.07;4.30;;;;;;;8.38;100.00;100666.72;5065919;28;20550;-75
2021/11/07 04:06:42;;;;;;;6.78;3.08;;;;;;;8.38;100.00;100642.78;5066410;28;20024;-75
2021/11/07 04:09:09;;;;;;;12.20;2.90;;;;;;;8.39;100.00;100627.66;5067267;28;20032;-75
2021/11/07 04:11:37;;;;;;;10.60;3.17;;;;;;;8.38;100.00;100615.31;5067032;28;20127;-74
2021/11/07 04:14:03;;;;;;;9.70;2.38;;;;;;;8.38;100.00;100597.56;5065811;28;20863;-75
2021/11/07 04:16:30;;;;;;;16.25;3.00;;;;;;;8.40;100.00;100595.59;5066906;28;20084;-75
2021/11/07 04:18:56;;;;;;;12.35;2.72;;;;;;;8.36;100.00;100556.97;5065367;28;20070;-75
2021/11/07 04:21:22;;;;;;;12.88;2.15;;;;;;;8.30;100.00;100501.72;5067038;28;20036;-75
2021/11/07 04:23:47;;;;;;;10.13;2.30;;;;;;;8.26;100.00;100479.06;5066722;28;20036;-75
2021/11/07 04:26:13;;;;;;;10.43;2.20;;;;;;;8.21;100.00;100449.44;5065942;28;20033;-75
2021/11/07 04:28:38;;;;;;;12.63;2.17;;;;;;;8.15;100.00;100419.00;5049213;28;20144;-76
2021/11/07 04:31:04;;;;;;;10.47;2.90;;;;;;;8.22;100.00;100427.19;5065752;28;20033;-76
2021/11/07 04:33:31;;;;;;;;;;;;;;;8.24;100.00;100418.06;5065850;28;20059;-76
2021/11/07 04:35:56;;;;;;;14.30;2.03;;;;;;;8.29;100.00;100422.91;5066858;28;20321;-75
2021/11/07 04:38:23;;;;;;;8.23;2.50;;;;;;;8.27;100.00;100422.22;5065833;28;20068;-75
2021/11/07 04:40:49;;;;;;;8.15;2.80;;;;;;;8.30;100.00;100415.78;5065799;28;20029;-75
2021/11/07 04:43:16;;;;;;;13.30;2.67;;;;;;;8.20;100.00;100386.63;5065669;28;20032;-76
2021/11/07 04:45:42;;;;;;;12.55;2.70;;;;;;;8.06;100.00;100387.19;5065616;28;20043;-76
2021/11/07 04:48:08;;;;;;;9.90;2.63;;;;;;;7.99;100.00;100393.09;5065898;28;20036;-76
2021/11/07 04:50:37;;;;;;;9.52;2.97;;;;;;;7.98;100.00;100411.84;5065666;28;20132;-76
2021/11/07 04:53:12;;;;;;;10.95;2.42;;;;;;;8.03;100.00;100434.34;5065474;28;20037;-76
2021/11/07 04:55:41;;;;;;;8.55;2.50;;;;;;;8.06;100.00;100451.00;5048782;28;20155;-76
2021/11/07 04:58:08;;;;;;;10.13;2.80;;;;;;;8.07;100.00;100458.78;5065839;28;20147;-77
2021/11/07 05:00:35;;;;;;;20.88;4.03;;;;;;;8.12;100.00;100471.63;5064864;28;20024;-76
2021/11/07 05:03:04;;;;;;;23.00;6.35;;;;;;;8.20;100.00;100487.66;5047275;28;20032;-77
2021/11/07 05:05:31;;;;;;;25.08;4.53;;;;;;;8.20;100.00;100479.69;5063655;28;20055;-77
2021/11/07 05:07:57;;;;;;;18.15;3.08;;;;;;;8.20;100.00;100488.50;5064642;28;20036;-77
2021/11/07 05:10:23;;;;;;;16.90;3.67;;;;;;;8.32;100.00;100505.06;5064886;28;20036;-77
2021/11/07 05:12:49;;;;;;;;;;;;;;;8.33;100.00;100490.75;5065237;28;20059;-77
2021/11/07 05:15:15;;;;;;;9.90;3.00;;;;;;;8.26;100.00;100479.06;5063704;28;19916;-77
2021/11/07 05:17:41;;;;;;;21.77;4.57;;;;;;;8.28;100.00;100493.03;5064934;28;20035;-76
2021/11/07 05:20:08;;;;;;;13.13;2.97;;;;;;;8.25;100.00;100496.03;5066765;28;20360;-76
2021/11/07 05:22:33;;;;;;;16.90;4.32;;;;;;;8.28;100.00;100537.44;5065441;28;20044;-76
2021/11/07 05:24:59;;;;;;;18.57;4.30;;;;;;;8.34;100.00;100540.31;5048416;28;20350;-75
2021/11/07 05:27:24;;;;;;;36.73;5.27;;;;;;;8.30;100.00;100538.13;5066387;28;20098;-75
2021/11/07 05:29:50;;;;;;;23.47;3.33;;;;;;;8.19;100.00;100515.22;5067578;28;20028;-75
2021/11/07 05:32:15;;;;;;;13.33;2.67;;;;;;;8.11;100.00;100486.75;5069806;28;20282;-75
2021/11/07 05:34:41;;;;;;;23.38;3.28;;;;;;;8.15;100.00;100463.38;5068576;28;20036;-76
2021/11/07 05:37:07;;;;;;;;;;;;;;;8.12;100.00;100434.41;5070379;28;20036;-76
2021/11/07 05:39:33;;;;;;;;;;;;;;;8.04;100.00;100395.31;5070075;28;19931;-77
2021/11/07 05:41:58;;;;;;;14.10;3.20;;;;;;;7.94;100.00;100357.34;5069713;28;19912;-77
2021/11/07 05:44:24;;;;;;;25.17;2.67;;;;;;;7.90;100.00;100329.41;5069429;28;20173;-77
2021/11/07 05:46:50;;;;;;;9.20;2.47;;;;;;;7.91;100.00;100325.75;5052011;28;20089;-77
2021/11/07 05:49:17;;;;;;;14.47;2.67;;;;;;;7.76;100.00;100307.72;5069541;28;20036;-77
2021/11/07 05:51:42;;;;;;;13.88;3.38;;;;;;;7.75;100.00;100287.44;5069468;28;20425;-76
2021/11/07 05:54:08;;;;;;;20.45;2.95;;;;;;;7.69;100.00;100289.88;5068157;28;20119;-77
2021/11/07 05:56:33;;;;;;;9.23;3.00;;;;;;;7.61;100.00;100278.22;5070346;28;20389;-77
2021/11/07 05:58:59;;;;;;;20.88;2.30;;;;;;;7.58;100.00;100277.66;5068209;28;20043;-77
2021/11/07 06:01:24;;;;;;;7.37;2.93;;;;;;;7.43;100.00;100266.78;5068262;28;20040;-77
2021/11/07 06:03:51;;;;;;;11.30;2.47;;;;;;;7.51;100.00;100274.78;5051544;28;20293;-77
2021/11/07 06:06:17;;;;;;;13.27;3.53;;;;;;;7.51;100.00;100288.06;5068506;28;20652;-77
2021/11/07 06:08:43;;;;;;;20.20;2.10;;;;;;;7.52;100.00;100288.94;5069220;28;20111;-77
2021/11/07 06:11:08;;;;;;;13.38;2.40;;;;;;;7.51;100.00;100281.94;5069252;28;20189;-77
2021/11/07 06:13:34;;;;;;;19.43;2.67;;;;;;;7.49;100.00;100290.09;5067869;28;20064;-77
2021/11/07 06:16:02;;;;;;;11.50;3.07;;;;;;;7.42;100.00;100278.38;5068151;28;20589;-78
2021/11/07 06:18:27;;;;;;;10.35;2.95;;;;;;;7.40;100.00;100275.06;5067893;28;20313;-78
2021/11/07 06:20:54;;;;;;;14.82;3.80;;;;;;;7.38;100.00;100271.72;5069279;28;20461;-78
2021/11/07 06:23:20;;;;;;;;;;;;;;;7.45;100.00;100275.44;5069229;28;20032;-77
2021/11/07 06:25:45;;;;;;;;;;;;;;;7.50;100.00;100290.91;5068379;28;19913;-77
2021/11/07 06:28:10;;;;;;;18.90;3.00;;;;;;;7.39;100.00;100265.41;5067923;28;20370;-78
2021/11/07 06:30:36;;;;;;;15.63;2.40;;;;;;;7.41;100.00;100263.44;5068794;28;20040;-79
2021/11/07 06:33:02;;;;;;;11.27;1.90;;;;;;;7.35;100.00;100253.41;5068672;28;20527;-78
2021/11/07 06:35:28;;;;;;;19.10;3.05;;;;;;;7.41;100.00;100268.75;5068718;28;20294;-78
2021/11/07 06:37:55;;;;;;;14.80;3.38;;;;;;;7.36;100.00;100260.41;5067666;28;20436;-78
2021/11/07 06:40:21;;;;;;;16.40;2.47;;;;;;;7.44;100.00;100271.09;5068214;28;20047;-78
2021/11/07 06:42:47;;;;;;;;;;;;;;;7.41;100.00;100268.75;5068027;28;20127;-78
2021/11/07 06:45:12;;;;;;;;;;;;;;;7.38;100.00;100261.09;5067736;28;20030;-78
2021/11/07 06:47:40;;;;;;;28.85;5.53;;;;;;;7.48;100.00;100269.81;5067646;28;20011;-77
2021/11/07 06:50:07;;;;;;;16.13;2.45;;;;;;;7.42;100.00;100262.44;5050707;28;20040;-77
2021/11/07 06:52:33;;;;;;;14.35;3.15;;;;;;;7.43;100.00;100253.50;5067116;28;20130;-77
2021/11/07 06:55:00;;;;;;;17.08;4.82;;;;;;;7.40;100.00;100253.81;5067025;28;20123;-77
2021/11/07 06:57:26;;;;;;;24.27;3.25;;;;;;;7.44;100.00;100257.81;5067015;28;20037;-77
2021/11/07 06:59:51;;;;;;;12.48;2.17;;;;;;;7.46;100.00;100262.97;5067236;28;20059;-76
2021/11/07 07:02:17;;;;;;;15.57;2.40;;;;;;;7.47;100.00;100254.00;5050529;28;20032;-77
2021/11/07 07:04:42;;;;;;;14.43;2.47;;;;;;;7.38;100.00;100255.78;5066818;28;20041;-77
2021/11/07 07:07:08;;;;;;;18.42;4.22;;;;;;;7.30;100.00;100242.44;5049939;28;20348;-77
2021/11/07 07:09:43;;;;;;;14.07;2.53;;;;;;;7.14;100.00;100235.16;5067943;28;20038;-77
2021/11/07 07:12:17;;;;;;;12.57;2.58;;;;;;;7.14;100.00;100229.84;5066914;28;20033;-77
2021/11/07 07:28:18;;;;;;;14.75;2.03;;;;;;;7.40;100.00;100281.19;5067777;28;20111;-78
2021/11/07 07:35:56;;;;;;;18.88;3.83;;;;;;;7.30;100.00;100253.88;5067493;28;20032;-77
2021/11/07 07:38:23;;;;;;;18.13;2.33;;;;;;;7.28;100.00;100261.19;5065270;28;20470;-77
2021/11/07 07:40:49;;;;;;;18.08;2.95;;;;;;;7.26;100.00;100264.94;5066763;28;20071;-77
2021/11/07 07:43:15;;;;;;;14.45;2.63;;;;;;;7.29;100.00;100246.09;5066458;28;20037;-77
2021/11/07 07:45:41;;;;;;;12.15;3.08;;;;;;;7.36;100.00;100260.41;5067507;28;20468;-77
2021/11/07 07:48:08;;;;;;;10.80;1.60;;;;;;;7.46;100.00;100258.50;5066592;28;20020;-77
2021/11/07 07:50:37;;;;;;;11.07;1.80;;;;;;;7.73;100.00;100265.50;5066124;28;20047;-78
2021/11/07 07:53:02;;;;;;;9.48;1.67;;;;;;;8.03;100.00;100256.22;5065493;28;20480;-78
2021/11/07 07:55:28;;;;;;;9.18;1.70;;;;;;;8.10;100.00;100236.97;5065983;28;20048;-78
2021/11/07 07:57:54;;;;;;;9.27;2.33;;;;;;;7.95;100.00;100237.56;5066187;28;20032;-78
2021/11/07 08:00:21;;;;;;;16.38;2.72;;;;;;;7.75;100.00;100226.34;5049245;28;20130;-78
2021/11/07 08:02:46;;;;;;;10.05;2.35;;;;;;;7.60;100.00;100223.38;5049151;28;20055;-78
2021/11/07 08:05:14;;;;;;;5.97;1.97;;;;;;;7.61;100.00;100238.34;5049050;28;20413;-77
2021/11/07 08:07:42;;;;;;;16.45;3.65;;;;;;;7.44;100.00;100233.91;5066480;28;20295;-77
2021/11/07 08:10:08;;;;;;;17.67;2.83;;;;;;;7.50;100.00;100243.91;5067089;28;20098;-77
2021/11/07 08:12:34;;;;;;;22.30;2.78;;;;;;;7.50;100.00;100249.22;5066958;28;20037;-77
2021/11/07 08:15:00;;;;;;;11.57;1.93;;;;;;;7.65;100.00;100259.28;5065553;28;20047;-77
2021/11/07 08:17:27;;;;;;;20.15;3.28;;;;;;;7.82;100.00;100277.03;5065938;28;20036;-77
2021/11/07 08:19:54;;;;;;;11.70;2.47;;;;;;;7.86;100.00;100267.75;5067148;28;20044;-78
2021/11/07 08:22:19;;;;;;;11.18;1.70;;;;;;;7.91;100.00;100286.69;5049244;28;20395;-77
2021/11/07 08:24:45;;;;;;;11.27;2.00;;;;;;;8.03;100.00;100301.41;5065909;28;20048;-77
2021/11/07 08:27:11;;;;;;;17.55;2.42;;;;;;;8.25;100.00;100323.16;5066955;28;20039;-78
2021/11/07 08:29:36;;;;;;;12.37;2.23;;;;;;;9.12;99.57;100354.97;5049155;28;20090;-76
2021/11/07 08:32:03;;;;;;;11.00;2.10;;;;;;;9.00;96.04;100307.34;5066044;28;20037;-76
2021/11/07 08:34:30;;;;;;;10.00;2.00;;;;;;;8.65;96.00;100276.47;5066406;28;20416;-76
2021/11/07 08:37:01;;;;;;;10.95;2.08;;;;;;;8.42;96.29;100277.03;5066018;28;20252;-77
2021/11/07 08:39:32;;;;;;;11.77;2.30;;;;;;;8.30;97.16;100272.13;5049380;28;20028;-76
2021/11/07 08:42:14;;;;;;;6.65;2.08;;;;;;;9.56;99.50;100350.22;5065868;28;20040;-76
2021/11/07 09:01:25;;;;;;;12.52;1.92;;;;;;;8.32;96.65;100297.59;5066486;28;20047;-77
2021/11/07 09:03:57;;;;;;;11.05;2.70;;;;;;;8.14;98.29;100326.06;5067418;28;20121;-78
2021/11/07 09:09:10;;;;;;;14.02;2.58;;;;;;;7.73;99.88;100344.41;5068629;28;20028;-75
2021/11/07 09:11:36;;;;;;;11.07;1.45;;;;;;;6.85;98.69;100323.78;5070141;28;20032;-77
2021/11/07 09:14:02;;;;;;;12.60;1.60;;;;;;;6.56;99.80;100334.56;5085515;28;20032;-75
2021/11/07 09:16:28;;;;;;;6.95;1.33;;;;;;;6.33;100.00;100303.09;5068050;28;20040;-75
2021/11/07 09:18:57;;;;;;;5.28;1.10;;;;;;;6.22;100.00;100305.94;5069090;28;20028;-75
2021/11/07 09:21:27;;;;;;;6.43;1.35;;;;;;;6.28;100.00;100321.28;5051827;28;20051;-77
2021/11/07 09:23:57;;;;;;;14.13;1.42;;;;;;;6.23;100.00;100315.56;5069480;28;20040;-77
2021/11/07 09:31:33;;;;;;;11.85;2.00;;;;;;;6.40;100.00;100350.25;5068281;28;20041;-76
2021/11/07 09:36:37;;;;;;;16.33;2.25;;;;;;;6.57;100.00;100373.34;5069407;28;20119;-76
2021/11/07 09:44:09;;;;;;;9.65;2.47;;;;;;;6.68;100.00;100370.53;5067379;28;20442;-77
2021/11/07 09:49:14;;;;;;;10.02;1.98;;;;;;;6.82;100.00;100398.41;5067734;28;20020;-76
2021/11/07 09:51:41;;;;;;;9.75;2.25;;;;;;;6.93;100.00;100413.28;5067711;28;20526;-76
2021/11/07 09:54:08;;;;;;;16.70;2.83;;;;;;;6.95;100.00;100398.91;5067113;28;20046;-77
2021/11/07 09:56:33;;;;;;;15.55;1.92;;;;;;;6.83;100.00;100352.28;5068544;28;20174;-77
2021/11/07 09:59:00;;;;;;;13.55;2.05;;;;;;;6.95;100.00;100384.75;5067844;28;20513;-77
2021/11/07 10:01:27;;;;;;;13.48;2.20;;;;;;;7.02;100.00;100393.81;5068032;28;20438;-76
2021/11/07 10:03:53;;;;;;;12.05;2.10;;;;;;;7.10;100.00;100407.19;5068880;28;20044;-76
2021/11/07 10:06:43;;;;;;;11.18;2.50;;;;;;;7.09;100.00;100399.38;5067185;28;20438;-76
2021/11/07 10:09:10;;;;;;;17.38;2.10;;;;;;;7.18;100.00;100403.78;5068856;28;20123;-75
2021/11/07 10:11:38;;;;;;;11.18;2.58;;;;;;;7.12;100.00;100381.34;5067912;28;20651;-75
2021/11/07 10:14:16;;;;;;;14.63;2.00;;;;;;;7.11;100.00;100371.69;5067775;28;20043;-76
2021/11/07 10:16:50;;;;;;;11.25;2.78;;;;;;;7.08;100.00;100369.34;5066878;28;20056;-76
2021/11/07 10:19:42;;;;;;;12.23;2.60;;;;;;;7.21;100.00;100398.19;5068133;28;20590;-76
2021/11/07 10:22:20;;;;;;;16.73;3.47;;;;;;;7.06;100.00;100376.59;5068452;28;20048;-75
2021/11/07 10:24:55;;;;;;;15.50;2.20;;;;;;;7.10;100.00;100399.22;5068446;28;20025;-75
2021/11/07 10:27:20;;;;;;;16.20;2.92;;;;;;;7.06;100.00;100389.88;5067776;28;20366;-76
2021/11/07 10:29:49;;;;;;;11.00;1.90;;;;;;;7.13;100.00;100404.22;5068728;28;20036;-76
2021/11/07 10:32:26;;;;;;;16.10;1.95;;;;;;;7.03;100.00;100387.53;5067413;28;20036;-76
2021/11/07 10:40:32;;;;;;;20.03;2.47;;;;;;;7.15;100.00;100367.75;5068446;28;20343;-77
2021/11/07 10:53:58;;;;;;;12.75;2.17;;;;;;;7.55;100.00;100347.06;5067891;28;20032;-76
2021/11/07 10:56:25;;;;;;;11.48;2.50;;;;;;;7.60;100.00;100342.13;5067132;28;20094;-77
2021/11/07 10:58:51;;;;;;;9.40;1.80;;;;;;;7.34;100.00;100324.28;5066856;28;20028;-77
2021/11/07 11:01:21;;;;;;;14.30;1.80;;;;;;;7.32;100.00;100338.72;5068196;28;20682;-77
2021/11/07 11:03:54;;;;;;;20.38;2.78;;;;;;;7.23;100.00;100342.28;5066910;28;20032;-76
2021/11/07 11:06:20;;;;;;;16.50;2.00;;;;;;;7.14;100.00;100344.84;5066836;28;20039;-77
2021/11/07 11:09:00;;;;;;;14.52;1.80;;;;;;;7.22;100.00;100369.81;5067037;28;20047;-76
2021/11/07 11:11:34;;;;;;;18.33;2.55;;;;;;;7.06;100.00;100362.50;5066599;28;20033;-76
2021/11/07 11:14:10;;;;;;;10.95;2.13;;;;;;;7.07;100.00;100378.28;5067246;28;20461;-77
2021/11/07 11:19:51;;;;;;;16.02;1.98;;;;;;;7.29;100.00;100389.47;5065406;28;20145;-77
2021/11/07 11:25:07;;;;;;;18.55;2.22;;;;;;;7.89;100.00;100389.72;5065793;28;20059;-77
2021/11/07 11:27:46;;;;;;;12.25;1.75;;;;;;;7.74;100.00;100340.75;5065562;28;20409;-78
2021/11/07 11:32:56;;;;;;;16.25;3.75;;;;;;;7.64;100.00;100330.22;5065171;28;20032;-78
2021/11/07 11:40:46;;;;;;;13.85;2.30;;;;;;;7.76;100.00;100314.84;5065653;28;20019;-76
2021/11/07 11:43:23;;;;;;;16.17;2.72;;;;;;;7.93;100.00;100332.56;5066001;28;20511;-75
2021/11/07 11:46:12;;;;;;;14.30;3.05;;;;;;;8.11;100.00;100348.50;5065476;28;20442;-76
2021/11/07 11:49:17;;;;;;;9.32;3.10;;;;;;;8.00;100.00;100327.47;5065318;28;20140;-75
2021/11/07 11:51:56;;;;;;;15.73;2.88;;;;;;;7.91;100.00;100339.88;5065508;28;20067;-77
2021/11/07 12:00:00;;;;;;;17.73;3.17;;;;;;;7.76;100.00;100365.34;5065475;28;20053;-74
2021/11/07 12:02:42;;;;;;;13.18;2.13;;;;;;;7.58;100.00;100355.53;5065086;28;20043;-74
2021/11/07 12:05:19;;;;;;;14.13;2.90;;;;;;;7.32;100.00;100336.06;5065348;28;20040;-76
2021/11/07 12:08:04;;;;;;;12.40;2.72;;;;;;;7.31;100.00;100343.19;5048738;28;20032;-78
2021/11/07 12:10:34;;;;;;;15.32;3.95;;;;;;;7.41;100.00;100345.78;5064990;28;20420;-77
2021/11/07 12:13:07;;;;;;;10.80;2.33;;;;;;;7.83;100.00;100371.72;5066481;28;20056;-77
2021/11/07 12:15:44;;;;;;;13.73;2.80;;;;;;;8.40;100.00;100368.63;5049887;28;20036;-75
2021/11/07 12:18:10;;;;;;;15.50;2.85;;;;;;;8.74;100.00;100365.16;5067620;28;20116;-77
2021/11/07 12:20:39;;;;;;;11.05;1.83;;;;;;;8.76;100.00;100348.03;5066404;28;20440;-75
2021/11/07 12:23:27;;;;;;;12.45;1.88;;;;;;;8.70;100.00;100327.38;5048426;28;20064;-76
2021/11/07 12:25:54;;;;;;;11.10;3.15;;;;;;;8.91;98.53;100316.31;5048382;28;20064;-75
2021/11/07 12:28:40;;;;;;;8.13;1.75;;;;;;;9.96;96.16;100335.22;5066048;28;20036;-75
2021/11/07 12:31:06;;;;;;;8.48;1.20;;;;;;;10.68;94.44;100339.75;5066064;28;20029;-76
2021/11/07 12:34:11;;;;;;;8.48;1.63;;;;;;;11.25;91.22;100319.91;5064943;28;20034;-76
2021/11/07 12:42:29;;;;;;;13.23;2.08;;;;;;;11.06;85.90;100235.72;5069920;28;20028;-79
2021/11/07 12:45:35;;;;;;;9.63;1.92;;;;;;;11.18;86.20;100266.34;5069859;28;20040;-79
2021/11/07 12:48:05;;;;;;;10.25;1.63;;;;;;;10.47;87.13;100223.72;5068898;28;20040;-79
2021/11/07 12:50:55;;;;;;;14.98;1.70;;;;;;;9.59;88.67;100205.13;5070345;28;20384;-79
2021/11/07 12:53:25;;;;;;;11.38;2.08;;;;;;;9.32;90.55;100222.31;5068956;28;20029;-80
2021/11/07 12:55:51;;;;;;;5.93;1.55;;;;;;;9.01;92.23;100217.63;5070317;28;20145;-79
2021/11/07 12:58:17;;;;;;;9.35;2.00;;;;;;;8.92;92.64;100235.44;5070165;28;20585;-79
2021/11/07 13:00:43;;;;;;;;;;;;;;;8.83;93.61;100237.25;5070852;28;20485;-80
2021/11/07 13:03:10;;;;;;;;;;;;;;;8.72;94.59;100239.41;5070296;28;19959;-79
2021/11/07 13:05:38;;;;;;;5.95;1.05;;;;;;;8.86;94.53;100246.75;5069539;28;19958;-80
2021/11/07 13:08:06;;;;;;;5.70;1.60;;;;;;;9.19;93.70;100266.25;5069552;28;20103;-78
2021/11/07 13:21:15;;;;;;;14.90;1.67;;;;;;;8.77;93.52;100227.25;5068483;28;20233;-78
2021/11/07 13:34:25;;;;;;;10.18;1.65;;;;;;;8.71;95.15;100216.44;5067825;28;20338;-78
2021/11/07 13:36:52;;;;;;;;;;;;;;;8.80;94.75;100237.59;5069231;28;20041;-78
2021/11/07 13:39:26;;;;;;;9.52;1.67;;;;;;;8.75;94.39;100239.06;5068571;28;19966;-78
2021/11/07 13:41:55;;;;;;;7.70;1.40;;;;;;;8.59;94.26;100235.38;5069489;28;20095;-77
2021/11/07 13:44:24;;;;;;;7.25;1.33;;;;;;;8.77;94.07;100237.91;5051613;28;20067;-77
2021/11/07 13:46:53;;;;;;;16.05;2.20;;;;;;;8.83;92.79;100241.75;5068628;28;20028;-78
2021/11/07 13:49:18;;;;;;;8.30;2.47;;;;;;;8.63;92.75;100206.59;5068106;28;20040;-77
2021/11/07 13:51:59;;;;;;;12.13;1.67;;;;;;;8.69;93.84;100239.72;5067593;28;20037;-78